This is the latest recevied weather packets stored in our database for station/object KC2BRB-1. If no packets are shown the sender has not sent any weather packets the latest 10 day(s).
| Time | Temp. | Humidity | Pressure | Rain* | Wind** | Luminosity | Snow |
|---|---|---|---|---|---|---|---|
| 1777744653 | 26.11° C | 88% | 1008.2 hPa | 2.03 mm | - | - | - |
| 1777744054 | 25° C | 91% | 1008.2 hPa | 2.03 mm | - | - | - |
| 1777743533 | 23.89° C | 89% | 1008.4 hPa | 2.03 mm | - | - | - |
| 1777742322 | 28.89° C | 70% | 1008.2 hPa | 0 mm | - | - | - |
| 1777741706 | 29.44° C | 67% | 1008.2 hPa | 0 mm | - | - | - |
| 1777741654 | 29.44° C | 67% | 1008.2 hPa | 0 mm | - | - | - |
| 1777741054 | 29.44° C | 69% | 1008.5 hPa | 0 mm | - | - | - |
| 1777740454 | 28.89° C | 68% | 1008.5 hPa | 0 mm | - | - | - |
| 1777739854 | 28.89° C | 67% | 1008.4 hPa | 0 mm | - | - | - |
| 1777739334 | 28.89° C | 68% | 1008.5 hPa | 0 mm | - | - | - |
| 1777739255 | 28.89° C | 68% | 1008.5 hPa | 0 mm | - | - | - |
| 1777738811 | 29.44° C | 67% | 1008.5 hPa | 0 mm | - | - | - |
| 1777738654 | 29.44° C | 67% | 1008.5 hPa | 0 mm | - | - | - |
| 1777738054 | 29.44° C | 66% | 1008.6 hPa | 0 mm | - | - | - |
| 1777737754 | 29.44° C | 67% | 1008.7 hPa | 0 mm | - | - | - |
| 1777737555 | 29.44° C | 67% | 1008.7 hPa | 0 mm | - | - | - |
| 1777736254 | 29.44° C | 67% | 1008.7 hPa | 0 mm | - | - | - |
| 1777736168 | 28.89° C | 69% | 1008.7 hPa | 0 mm | - | - | - |
| 1777736109 | 28.89° C | 69% | 1008.7 hPa | 0 mm | - | - | - |
| 1777735954 | 28.89° C | 69% | 1008.7 hPa | 0 mm | - | - | - |
| 1777735654 | 28.89° C | 69% | 1008.7 hPa | 0 mm | - | - | - |
| 1777735354 | 28.89° C | 70% | 1008.7 hPa | 0 mm | - | - | - |
| 1777735078 | 28.33° C | 71% | 1009 hPa | 0 mm | - | - | - |
| 1777735054 | 28.89° C | 70% | 1008.7 hPa | 0 mm | - | - | - |
| 1777734754 | 28.33° C | 71% | 1009 hPa | 0 mm | - | - | - |
* Rain latest hour (hover to see other rain measurements)
** Current wind speed in m/s (hover to see current wind gust speed)